createdAt,value
2018-08-25T00:02:26.940Z,96544.94
2018-08-25T00:04:55.327Z,96539.28
2018-08-25T00:07:23.671Z,96544.88
2018-08-25T00:09:52.031Z,96540.53
2018-08-25T00:12:20.581Z,96544.42
2018-08-25T00:14:48.944Z,96538.59
2018-08-25T00:17:17.611Z,96536.23
2018-08-25T00:19:46.005Z,96534.47
2018-08-25T00:22:14.340Z,96534.50
2018-08-25T00:24:42.715Z,96537.67
2018-08-25T00:27:11.051Z,96534.55
2018-08-25T00:29:39.408Z,96518.34
2018-08-25T00:32:08.020Z,96514.91
2018-08-25T00:34:36.381Z,96512.53
2018-08-25T00:37:04.756Z,96511.38
2018-08-25T00:39:33.103Z,96515.70
2018-08-25T00:42:01.460Z,96502.56
2018-08-25T00:44:30.131Z,96507.89
2018-08-25T00:46:58.892Z,96509.50
2018-08-25T00:49:27.267Z,96505.19
2018-08-25T00:51:55.596Z,96511.85
2018-08-25T00:54:23.956Z,96504.72
2018-08-25T00:56:52.333Z,96497.88
2018-08-25T00:59:21.210Z,96492.95
2018-08-25T01:01:49.484Z,96495.89
2018-08-25T01:04:17.866Z,96499.05
2018-08-25T01:06:46.408Z,96490.50
2018-08-25T01:09:14.788Z,96485.17
2018-08-25T01:11:43.172Z,96484.96
2018-08-25T01:14:11.576Z,96478.97
2018-08-25T01:16:39.916Z,96472.00
2018-08-25T01:19:08.744Z,96471.02
2018-08-25T01:21:37.092Z,96467.30
2018-08-25T01:24:05.559Z,96464.25
2018-08-25T01:26:33.892Z,96463.03
2018-08-25T01:29:02.283Z,96468.09
2018-08-25T01:31:30.604Z,96455.50
2018-08-25T01:34:00.660Z,96459.88
2018-08-25T01:36:29.294Z,96463.45
2018-08-25T01:38:57.664Z,96459.80
2018-08-25T01:41:25.979Z,96454.41
2018-08-25T01:43:54.327Z,96459.80
2018-08-25T01:46:22.676Z,96461.94
2018-08-25T01:48:51.024Z,96465.13
2018-08-25T01:51:19.373Z,96466.81
2018-08-25T01:53:47.736Z,96456.17
2018-08-25T01:56:16.076Z,96443.49
2018-08-25T01:58:45.000Z,96443.06
2018-08-25T02:01:13.369Z,96438.01
2018-08-25T02:03:41.776Z,96437.20
2018-08-25T02:06:10.097Z,96430.13
2018-08-25T02:08:38.744Z,96426.54
2018-08-25T02:11:07.086Z,96421.97
2018-08-25T02:13:35.416Z,96419.33
2018-08-25T02:16:03.824Z,96414.73
2018-08-25T02:18:32.193Z,96418.41
2018-08-25T02:21:00.688Z,96423.38
2018-08-25T02:23:29.016Z,96416.28
2018-08-25T02:25:57.348Z,96424.41
2018-08-25T02:28:25.675Z,96419.07
2018-08-25T02:30:54.016Z,96417.44
2018-08-25T02:33:22.396Z,96413.66
2018-08-25T02:35:50.761Z,96409.22
2018-08-25T02:38:19.100Z,96404.83
2018-08-25T02:40:47.448Z,96414.92
2018-08-25T02:43:15.824Z,96413.44
2018-08-25T02:45:44.691Z,96411.30
2018-08-25T02:48:13.011Z,96419.11
2018-08-25T02:50:41.665Z,96411.98
2018-08-25T02:53:10.024Z,96415.77
2018-08-25T02:55:38.392Z,96405.27
2018-08-25T02:58:06.729Z,96405.03
2018-08-25T03:00:35.089Z,96401.80
2018-08-25T03:03:03.873Z,96392.49
2018-08-25T03:05:32.233Z,96400.31
2018-08-25T03:08:00.985Z,96396.74
2018-08-25T03:10:29.336Z,96391.73
2018-08-25T03:12:57.696Z,96386.73
2018-08-25T03:15:26.037Z,96386.78
2018-08-25T03:17:54.367Z,96386.23
2018-08-25T03:20:22.720Z,96376.81
2018-08-25T03:22:51.266Z,96383.81
2018-08-25T03:25:19.628Z,96367.94
2018-08-25T03:27:47.955Z,96369.81
2018-08-25T03:30:16.742Z,96367.83
2018-08-25T03:32:45.065Z,96370.51
2018-08-25T03:35:13.412Z,96373.22
2018-08-25T03:37:41.735Z,96370.29
2018-08-25T03:40:10.252Z,96368.24
2018-08-25T03:42:38.592Z,96369.65
2018-08-25T03:45:07.020Z,96365.13
2018-08-25T03:47:35.343Z,96365.66
2018-08-25T03:50:03.713Z,96366.24
2018-08-25T03:52:32.036Z,96357.36
2018-08-25T03:55:00.380Z,96358.17
2018-08-25T03:57:28.729Z,96358.93
2018-08-25T03:59:57.103Z,96360.49
2018-08-25T04:02:25.415Z,96363.66
2018-08-25T04:04:53.784Z,96348.11
2018-08-25T04:07:22.129Z,96348.38
2018-08-25T04:09:50.819Z,96347.41
2018-08-25T04:12:19.544Z,96336.63
2018-08-25T04:14:47.936Z,96328.84
2018-08-25T04:17:16.568Z,96328.61
2018-08-25T04:19:44.907Z,96324.75
2018-08-25T04:22:13.423Z,96325.06
2018-08-25T04:24:41.739Z,96324.47
2018-08-25T04:27:10.085Z,96315.52
2018-08-25T04:29:38.416Z,96319.58
2018-08-25T04:32:06.808Z,96322.32
2018-08-25T04:34:35.132Z,96328.98
2018-08-25T04:37:03.926Z,96322.27
2018-08-25T04:39:32.292Z,96316.62
2018-08-25T04:42:00.632Z,96322.59
2018-08-25T04:44:28.968Z,96318.12
2018-08-25T04:46:57.327Z,96314.66
2018-08-25T04:49:25.679Z,96310.66
2018-08-25T04:51:54.544Z,96308.52
2018-08-25T04:54:23.144Z,96316.80
2018-08-25T04:56:51.536Z,96317.13
2018-08-25T04:59:19.869Z,96326.00
2018-08-25T05:01:48.278Z,96324.53
2018-08-25T05:04:16.584Z,96326.32
2018-08-25T05:06:44.953Z,96327.22
2018-08-25T05:09:13.277Z,96328.78
2018-08-25T05:11:41.639Z,96328.24
2018-08-25T05:14:09.981Z,96333.09
2018-08-25T05:16:38.342Z,96334.06
2018-08-25T05:19:06.676Z,96329.67
2018-08-25T05:21:35.157Z,96329.86
2018-08-25T05:24:03.491Z,96338.23
2018-08-25T05:26:31.860Z,96329.88
2018-08-25T05:29:00.192Z,96334.95
2018-08-25T05:31:28.565Z,96331.91
2018-08-25T05:33:56.904Z,96326.38
2018-08-25T05:36:25.252Z,96330.27
2018-08-25T05:38:53.584Z,96320.95
2018-08-25T05:41:21.920Z,96334.91
2018-08-25T05:43:50.257Z,96343.59
2018-08-25T05:46:18.616Z,96339.81
2018-08-25T05:48:46.938Z,96333.60
2018-08-25T05:51:15.275Z,96329.52
2018-08-25T05:53:43.633Z,96332.44
2018-08-25T05:56:12.012Z,96336.16
2018-08-25T05:58:40.372Z,96337.69
2018-08-25T06:01:09.321Z,96330.78
2018-08-25T06:03:37.650Z,96317.38
2018-08-25T06:06:06.028Z,96318.01
2018-08-25T06:08:34.378Z,96331.00
2018-08-25T06:11:02.691Z,96333.06
2018-08-25T06:13:31.081Z,96333.79
2018-08-25T06:15:59.830Z,96351.55
2018-08-25T06:18:28.197Z,96353.66
2018-08-25T06:20:56.537Z,96347.78
2018-08-25T06:23:24.897Z,96345.62
2018-08-25T06:25:53.265Z,96346.39
2018-08-25T06:28:21.615Z,96343.20
2018-08-25T06:30:49.939Z,96356.08
2018-08-25T06:33:18.281Z,96353.20
2018-08-25T06:35:46.712Z,96356.89
2018-08-25T06:38:15.064Z,96358.09
2018-08-25T06:40:43.389Z,96358.05
2018-08-25T06:43:11.728Z,96360.38
2018-08-25T06:45:40.072Z,96369.52
2018-08-25T06:48:08.861Z,96366.98
2018-08-25T06:50:37.191Z,96369.80
2018-08-25T06:53:05.681Z,96366.27
2018-08-25T06:55:33.993Z,96375.00
2018-08-25T06:58:02.349Z,96366.24
2018-08-25T07:00:30.672Z,96369.00
2018-08-25T07:02:59.031Z,96361.56
2018-08-25T07:05:27.387Z,96363.98
2018-08-25T07:07:55.753Z,96378.75
2018-08-25T07:10:24.115Z,96371.86
2018-08-25T07:12:52.627Z,96378.11
2018-08-25T07:15:20.933Z,96379.83
2018-08-25T07:17:49.275Z,96376.44
2018-08-25T07:20:17.609Z,96389.48
2018-08-25T07:22:45.965Z,96391.06
2018-08-25T07:25:14.318Z,96391.08
2018-08-25T07:27:42.684Z,96394.52
2018-08-25T07:30:11.025Z,96397.69
2018-08-25T07:32:39.881Z,96392.84
2018-08-25T07:35:08.259Z,96403.05
2018-08-25T07:37:36.596Z,96419.20
2018-08-25T07:40:05.061Z,96419.78
2018-08-25T07:42:33.399Z,96418.78
2018-08-25T07:45:01.733Z,96423.00
2018-08-25T07:47:30.096Z,96428.56
2018-08-25T07:49:58.427Z,96425.95
2018-08-25T07:52:26.801Z,96430.17
2018-08-25T07:54:55.132Z,96434.94
2018-08-25T07:57:23.517Z,96430.77
2018-08-25T07:59:51.908Z,96434.65
2018-08-25T08:02:20.259Z,96431.23
2018-08-25T08:04:48.639Z,96436.55
2018-08-25T08:07:16.944Z,96435.59
2018-08-25T08:09:45.658Z,96436.31
2018-08-25T08:12:14.070Z,96443.05
2018-08-25T08:14:42.381Z,96438.67
2018-08-25T08:17:11.300Z,96439.48
2018-08-25T08:19:39.652Z,96439.02
2018-08-25T08:22:08.081Z,96425.55
2018-08-25T08:24:36.870Z,96434.36
2018-08-25T08:27:05.749Z,96445.14
2018-08-25T08:29:34.110Z,96436.20
2018-08-25T08:32:02.472Z,96449.21
2018-08-25T08:34:30.816Z,96438.48
2018-08-25T08:36:59.189Z,96442.73
2018-08-25T08:39:27.578Z,96440.92
2018-08-25T08:41:55.900Z,96450.83
2018-08-25T08:44:24.272Z,96449.05
2018-08-25T08:46:52.601Z,96448.23
2018-08-25T08:49:20.971Z,96456.72
2018-08-25T08:51:49.295Z,96461.14
2018-08-25T08:54:17.729Z,96458.81
2018-08-25T08:56:46.060Z,96460.52
2018-08-25T08:59:14.424Z,96473.23
2018-08-25T09:01:42.757Z,96477.08
2018-08-25T09:04:11.104Z,96480.94
2018-08-25T09:06:39.446Z,96464.59
2018-08-25T09:09:09.492Z,96466.68
2018-08-25T09:11:38.429Z,96487.47
2018-08-25T09:14:06.804Z,96481.71
2018-08-25T09:16:35.116Z,96477.17
2018-08-25T09:19:03.497Z,96489.45
2018-08-25T09:21:31.816Z,96489.44
2018-08-25T09:24:00.192Z,96498.92
2018-08-25T09:26:28.550Z,96503.54
2018-08-25T09:28:57.207Z,96498.89
2018-08-25T09:31:25.650Z,96490.84
2018-08-25T09:33:53.999Z,96489.18
2018-08-25T09:36:22.471Z,96497.40
2018-08-25T09:38:51.843Z,96492.14
2018-08-25T09:41:20.212Z,96484.43
2018-08-25T09:43:48.701Z,96478.99
2018-08-25T09:46:17.015Z,96476.38
2018-08-25T09:48:45.372Z,96490.88
2018-08-25T09:51:13.712Z,96483.95
2018-08-25T09:53:42.152Z,96486.91
2018-08-25T09:56:10.424Z,96480.86
2018-08-25T09:58:38.779Z,96482.87
2018-08-25T10:01:12.780Z,96491.25
2018-08-25T10:03:41.224Z,96476.22
2018-08-25T10:06:09.824Z,96479.39
2018-08-25T10:08:38.175Z,96478.54
2018-08-25T10:11:06.621Z,96498.16
2018-08-25T10:13:34.960Z,96490.34
2018-08-25T10:16:03.284Z,96479.82
2018-08-25T10:18:31.665Z,96484.45
2018-08-25T10:21:01.017Z,96485.70
2018-08-25T10:23:29.437Z,96478.08
2018-08-25T10:25:57.752Z,96495.94
2018-08-25T10:28:26.104Z,96501.57
2018-08-25T10:30:54.439Z,96503.61
2018-08-25T10:33:22.785Z,96489.16
2018-08-25T10:35:51.838Z,96494.11
2018-08-25T10:38:20.572Z,96494.50
2018-08-25T10:40:48.932Z,96495.71
2018-08-25T10:43:17.265Z,96503.55
2018-08-25T10:45:45.607Z,96498.67
2018-08-25T10:48:14.021Z,96499.62
2018-08-25T10:50:42.343Z,96511.16
2018-08-25T10:53:10.664Z,96497.74
2018-08-25T10:55:39.008Z,96493.28
2018-08-25T10:58:07.332Z,96489.63
2018-08-25T11:00:35.870Z,96502.05
2018-08-25T11:03:04.589Z,96503.95
2018-08-25T11:05:32.968Z,96488.72
2018-08-25T11:08:01.303Z,96492.33
2018-08-25T11:10:29.661Z,96493.19
2018-08-25T11:12:58.322Z,96503.07
2018-08-25T11:15:26.688Z,96499.17
2018-08-25T11:17:55.013Z,96500.81
2018-08-25T11:20:23.382Z,96498.84
2018-08-25T11:22:51.726Z,96507.63
2018-08-25T11:25:20.087Z,96515.02
2018-08-25T11:27:48.415Z,96509.82
2018-08-25T11:30:16.804Z,96502.97
2018-08-25T11:32:45.201Z,96501.64
2018-08-25T11:35:13.551Z,96502.36
2018-08-25T11:37:41.957Z,96493.13
2018-08-25T11:40:10.268Z,96490.19
2018-08-25T11:42:38.588Z,96500.58
2018-08-25T11:45:07.192Z,96514.60
2018-08-25T11:47:35.531Z,96514.08
2018-08-25T11:50:03.937Z,96520.89
2018-08-25T11:52:32.261Z,96512.89
2018-08-25T11:55:00.621Z,96519.83
2018-08-25T11:57:29.237Z,96519.32
2018-08-25T11:59:57.596Z,96506.55
2018-08-25T12:02:27.801Z,96515.55
2018-08-25T12:04:54.328Z,96513.41
2018-08-25T12:07:22.653Z,96504.50
2018-08-25T12:09:51.012Z,96504.36
2018-08-25T12:12:20.525Z,96505.65
2018-08-25T12:14:48.868Z,96496.89
2018-08-25T12:17:17.220Z,96509.89
2018-08-25T12:19:45.563Z,96498.95
2018-08-25T12:22:13.913Z,96516.71
2018-08-25T12:24:42.264Z,96512.16
2018-08-25T12:27:10.604Z,96518.81
2018-08-25T12:29:38.988Z,96510.63
2018-08-25T12:32:07.328Z,96512.56
2018-08-25T12:34:35.659Z,96518.72
2018-08-25T12:37:04.060Z,96522.03
2018-08-25T12:39:32.400Z,96527.81
2018-08-25T12:42:01.551Z,96521.94
2018-08-25T12:44:30.401Z,96524.79
2018-08-25T12:46:58.760Z,96524.53
2018-08-25T12:49:27.080Z,96520.70
2018-08-25T12:51:55.424Z,96522.55
2018-08-25T12:54:23.793Z,96536.28
2018-08-25T12:56:52.156Z,96528.53
2018-08-25T12:59:20.541Z,96516.49
2018-08-25T13:01:49.012Z,96504.07
2018-08-25T13:04:17.356Z,96520.34
2018-08-25T13:06:45.737Z,96528.34
2018-08-25T13:09:14.064Z,96526.73
2018-08-25T13:11:42.420Z,96528.84
2018-08-25T13:14:10.961Z,96548.41
2018-08-25T13:16:39.339Z,96540.50
2018-08-25T13:19:07.688Z,96533.63
2018-08-25T13:21:36.050Z,96524.88
2018-08-25T13:24:04.395Z,96513.69
2018-08-25T13:26:33.081Z,96523.00
2018-08-25T13:29:01.412Z,96504.33
2018-08-25T13:31:29.765Z,96528.95
2018-08-25T13:33:58.219Z,96523.53
2018-08-25T13:36:26.569Z,96532.96
2018-08-25T13:38:54.907Z,96531.05
2018-08-25T13:41:23.256Z,96535.13
2018-08-25T13:43:51.599Z,96534.17
2018-08-25T13:46:19.952Z,96542.98
2018-08-25T13:48:48.276Z,96544.22
2018-08-25T13:51:16.640Z,96545.40
2018-08-25T13:53:44.974Z,96546.36
2018-08-25T13:56:13.606Z,96543.91
2018-08-25T13:58:42.116Z,96545.12
2018-08-25T14:01:10.772Z,96547.47
2018-08-25T14:03:39.088Z,96541.59
2018-08-25T14:06:08.351Z,96542.50
2018-08-25T14:08:36.684Z,96538.88
2018-08-25T14:11:05.045Z,96536.93
2018-08-25T14:13:33.357Z,96537.59
2018-08-25T14:16:01.800Z,96541.92
2018-08-25T14:18:30.044Z,96541.48
2018-08-25T14:20:58.406Z,96532.65
2018-08-25T14:23:26.736Z,96539.55
2018-08-25T14:25:55.128Z,96533.52
2018-08-25T14:28:23.468Z,96542.64
2018-08-25T14:30:51.821Z,96541.81
2018-08-25T14:33:20.157Z,96527.17
2018-08-25T14:35:48.496Z,96538.36
2018-08-25T14:38:19.061Z,96532.65
2018-08-25T14:40:47.838Z,96543.16
2018-08-25T14:43:16.188Z,96532.01
2018-08-25T14:45:44.770Z,96540.96
2018-08-25T14:48:15.206Z,96546.73
2018-08-25T14:50:43.944Z,96547.27
2018-08-25T14:53:14.432Z,96545.48
2018-08-25T14:55:50.536Z,96536.92
2018-08-25T14:58:18.945Z,96539.34
2018-08-25T15:00:47.323Z,96542.70
2018-08-25T15:03:15.672Z,96546.67
2018-08-25T15:05:44.027Z,96544.08
2018-08-25T15:08:12.420Z,96551.13
2018-08-25T15:10:40.760Z,96543.53
2018-08-25T15:13:09.650Z,96547.13
2018-08-25T15:15:38.229Z,96548.66
2018-08-25T15:18:11.896Z,96555.19
2018-08-25T15:20:40.293Z,96559.30
2018-08-25T15:23:08.633Z,96559.61
2018-08-25T15:25:36.953Z,96557.57
2018-08-25T15:28:05.557Z,96559.59
2018-08-25T15:30:34.770Z,96561.02
2018-08-25T15:33:04.117Z,96566.56
2018-08-25T15:35:33.792Z,96561.81
2018-08-25T15:38:08.384Z,96565.05
2018-08-25T15:40:36.755Z,96562.97
2018-08-25T15:43:06.304Z,96572.56
2018-08-25T15:45:35.865Z,96568.08
2018-08-25T15:48:06.539Z,96577.02
2018-08-25T15:50:34.902Z,96581.38
2018-08-25T15:53:03.335Z,96577.77
2018-08-25T15:55:36.576Z,96573.13
2018-08-25T15:58:06.935Z,96574.92
2018-08-25T16:00:37.682Z,96581.77
2018-08-25T16:03:06.140Z,96572.93
2018-08-25T16:05:34.676Z,96578.33
2018-08-25T16:08:03.047Z,96585.36
2018-08-25T16:10:31.372Z,96590.02
2018-08-25T16:12:59.735Z,96585.45
2018-08-25T16:15:28.053Z,96578.90
2018-08-25T16:17:56.403Z,96585.70
2018-08-25T16:20:24.789Z,96590.92
2018-08-25T16:22:53.135Z,96590.33
2018-08-25T16:25:21.482Z,96589.69
2018-08-25T16:27:49.845Z,96595.13
2018-08-25T16:30:18.217Z,96611.10
2018-08-25T16:32:46.604Z,96602.80
2018-08-25T16:35:14.920Z,96599.28
2018-08-25T16:37:43.378Z,96602.66
2018-08-25T16:40:11.946Z,96624.02
2018-08-25T16:42:40.311Z,96623.59
2018-08-25T16:45:08.656Z,96629.55
2018-08-25T16:47:37.016Z,96633.58
2018-08-25T16:50:05.392Z,96650.38
2018-08-25T16:52:33.772Z,96653.06
2018-08-25T16:55:02.546Z,96659.48
2018-08-25T16:57:32.054Z,96664.13
2018-08-25T17:00:00.889Z,96670.86
2018-08-25T17:02:30.133Z,96673.66
2018-08-25T17:05:04.342Z,96688.66
2018-08-25T17:07:32.739Z,96692.72
2018-08-25T17:10:01.069Z,96701.90
2018-08-25T17:12:29.408Z,96708.52
2018-08-25T17:14:59.343Z,96719.92
2018-08-25T17:17:27.745Z,96720.12
2018-08-25T17:19:57.628Z,96715.70
2018-08-25T17:22:25.913Z,96716.77
2018-08-25T17:24:54.510Z,96715.15
2018-08-25T17:27:22.836Z,96713.86
2018-08-25T17:29:51.221Z,96709.08
2018-08-25T17:32:19.560Z,96712.70
2018-08-25T17:34:47.934Z,96710.10
2018-08-25T17:37:16.289Z,96717.94
2018-08-25T17:39:49.775Z,96711.88
2018-08-25T17:42:18.138Z,96713.66
2018-08-25T17:44:52.273Z,96718.66
2018-08-25T17:47:21.553Z,96721.02
2018-08-25T17:49:50.657Z,96722.80
2018-08-25T17:52:19.028Z,96723.59
2018-08-25T17:54:47.377Z,96733.33
2018-08-25T17:57:15.825Z,96727.04
2018-08-25T17:59:44.144Z,96735.80
2018-08-25T18:02:13.960Z,96736.92
2018-08-25T18:04:42.528Z,96734.27
2018-08-25T18:07:11.000Z,96737.72
2018-08-25T18:09:39.352Z,96745.90
2018-08-25T18:12:07.697Z,96752.63
2018-08-25T18:14:36.036Z,96750.84
2018-08-25T18:17:04.423Z,96757.36
2018-08-25T18:19:32.781Z,96760.09
2018-08-25T18:22:01.121Z,96766.31
2018-08-25T18:24:29.504Z,96759.11
2018-08-25T18:26:58.164Z,96775.30
2018-08-25T18:29:26.528Z,96772.56
2018-08-25T18:31:54.924Z,96779.25
2018-08-25T18:34:28.343Z,96785.42
2018-08-25T18:36:58.201Z,96788.89
2018-08-25T18:39:27.815Z,96792.91
2018-08-25T18:41:57.461Z,96796.09
2018-08-25T18:44:25.916Z,96798.20
2018-08-25T18:46:54.240Z,96806.75
2018-08-25T18:49:22.588Z,96805.84
2018-08-25T18:51:50.888Z,96803.64
2018-08-25T18:54:19.264Z,96809.29
2018-08-25T18:56:47.616Z,96814.35
2018-08-25T18:59:15.975Z,96820.33
2018-08-25T19:01:44.333Z,96818.20
2018-08-25T19:04:12.705Z,96817.12
2018-08-25T19:06:41.040Z,96818.98
2018-08-25T19:09:09.660Z,96831.88
2018-08-25T19:11:37.992Z,96831.42
2018-08-25T19:14:11.360Z,96827.17
2018-08-25T19:16:41.355Z,96842.00
2018-08-25T19:19:12.156Z,96846.56
2018-08-25T19:21:40.524Z,96838.23
2018-08-25T19:24:09.260Z,96836.66
2018-08-25T19:26:37.593Z,96843.70
2018-08-25T19:29:05.953Z,96843.18
2018-08-25T19:31:34.275Z,96841.34
2018-08-25T19:34:02.628Z,96841.34
2018-08-25T19:36:30.989Z,96849.12
2018-08-25T19:39:00.660Z,96856.92
2018-08-25T19:41:30.459Z,96859.58
2018-08-25T19:43:59.244Z,96860.13
2018-08-25T19:46:27.716Z,96857.64
2018-08-25T19:48:56.028Z,96859.20
2018-08-25T19:51:24.443Z,96862.61
2018-08-25T19:53:52.769Z,96869.45
2018-08-25T19:56:21.144Z,96865.30
2018-08-25T19:58:49.489Z,96872.67
2018-08-25T20:01:18.064Z,96873.34
2018-08-25T20:03:46.449Z,96873.02
2018-08-25T20:06:19.778Z,96873.85
2018-08-25T20:08:49.060Z,96879.41
2018-08-25T20:11:18.461Z,96881.52
2018-08-25T20:13:48.169Z,96881.36
2018-08-25T20:16:17.872Z,96876.66
2018-08-25T20:18:47.086Z,96882.47
2018-08-25T20:21:16.106Z,96889.74
2018-08-25T20:23:44.470Z,96890.35
2018-08-25T20:26:13.665Z,96891.22
2018-08-25T20:28:42.587Z,96903.59
2018-08-25T20:31:12.684Z,96890.95
2018-08-25T20:33:42.044Z,96897.02
2018-08-25T20:36:11.750Z,96894.93
2018-08-25T20:38:40.108Z,96897.63
2018-08-25T20:41:08.464Z,96900.70
2018-08-25T20:43:36.804Z,96908.30
2018-08-25T20:46:05.591Z,96905.53
2018-08-25T20:48:36.206Z,96912.91
2018-08-25T20:51:05.024Z,96915.19
2018-08-25T20:53:33.352Z,96915.63
2018-08-25T20:56:05.182Z,96913.11
2018-08-25T20:58:34.110Z,96915.57
2018-08-25T21:01:03.799Z,96920.23
2018-08-25T21:03:33.905Z,96928.30
2018-08-25T21:06:03.048Z,96918.44
2018-08-25T21:08:32.033Z,96918.55
2018-08-25T21:11:03.055Z,96926.02
2018-08-25T21:13:32.697Z,96922.34
2018-08-25T21:16:05.156Z,96916.02
2018-08-25T21:18:34.937Z,96921.80
2018-08-25T21:21:04.822Z,96926.16
2018-08-25T21:23:37.210Z,96921.40
2018-08-25T21:26:11.557Z,96926.02
2018-08-25T21:28:45.214Z,96930.19
2018-08-25T21:31:17.011Z,96929.92
2018-08-25T21:33:47.228Z,96930.58
2018-08-25T21:36:16.267Z,96933.25
2018-08-25T21:38:44.572Z,96935.38
2018-08-25T21:41:12.905Z,96926.86
2018-08-25T21:43:41.248Z,96932.97
2018-08-25T21:46:09.746Z,96931.88
2018-08-25T21:48:38.258Z,96938.06
2018-08-25T21:51:06.702Z,96934.72
2018-08-25T21:53:35.460Z,96937.45
2018-08-25T21:56:03.843Z,96937.03
2018-08-25T21:58:32.252Z,96942.87
2018-08-25T22:01:00.706Z,96939.66
2018-08-25T22:03:29.209Z,96938.67
2018-08-25T22:05:58.531Z,96944.66
2018-08-25T22:08:27.729Z,96940.77
2018-08-25T22:10:56.905Z,96945.66
2018-08-25T22:13:25.787Z,96938.06
2018-08-25T22:15:54.840Z,96943.73
2018-08-25T22:18:24.637Z,96943.61
2018-08-25T22:20:53.935Z,96941.26
2018-08-25T22:23:24.106Z,96938.27
2018-08-25T22:25:53.774Z,96937.10
2018-08-25T22:28:23.911Z,96937.65
2018-08-25T22:30:52.615Z,96938.17
2018-08-25T22:33:22.370Z,96943.39
2018-08-25T22:35:52.144Z,96945.02
2018-08-25T22:38:22.569Z,96941.20
2018-08-25T22:40:53.336Z,96943.33
2018-08-25T22:43:23.265Z,96941.80
2018-08-25T22:45:51.632Z,96946.14
2018-08-25T22:48:21.790Z,96946.05
2018-08-25T22:50:51.513Z,96954.06
2018-08-25T22:53:21.017Z,96945.28
2018-08-25T22:55:50.664Z,96950.96
2018-08-25T22:58:20.133Z,96952.36
2018-08-25T23:00:49.727Z,96955.07
2018-08-25T23:03:18.268Z,96958.73
2018-08-25T23:05:46.601Z,96953.06
2018-08-25T23:08:14.940Z,96961.98
2018-08-25T23:10:43.276Z,96963.53
2018-08-25T23:13:12.273Z,96963.88
2018-08-25T23:15:40.608Z,96963.25
2018-08-25T23:18:08.956Z,96958.80
2018-08-25T23:20:37.296Z,96960.54
2018-08-25T23:23:05.692Z,96960.20
2018-08-25T23:25:34.044Z,96963.53
2018-08-25T23:28:02.436Z,96961.73
2018-08-25T23:30:30.897Z,96969.53
2018-08-25T23:32:59.409Z,96966.87
2018-08-25T23:35:27.732Z,96965.54
2018-08-25T23:37:56.778Z,96969.59
2018-08-25T23:40:25.237Z,96970.72
2018-08-25T23:42:53.611Z,96966.31
2018-08-25T23:45:21.949Z,96970.18
2018-08-25T23:47:50.569Z,96972.38
2018-08-25T23:50:18.901Z,96971.77
2018-08-25T23:52:47.259Z,96981.39
2018-08-25T23:55:15.580Z,96973.80
2018-08-25T23:57:43.915Z,96969.59
